Terminal Aerodrome Forecast
Issued by NWS

Home | Current Version | Previous Version | Text Only | Print | Product List | Glossary On
Versions: 1 2 3 4 5 6 7 8 9 10 11 12 13 14 15 16 17 18 19 20 21 22 23 24 25 26 27 28 29 30
000
FTUS41 KALY 250800 AAA
TAFPSF
TAF AMD
KPSF 250826Z 2508/2606 27012G20KT P6SM VCSH SCT008 OVC012
      TEMPO 2508/2511 25010KT
     FM251100 29015G25KT 6SM -SHSN BR BKN015 OVC025
     FM251600 29013G23KT P6SM SCT040
     FM252300 29008KT P6SM SKC=

USA.gov is the U.S. government's official web portal to all federal, state and local government web resources and services.